Time;durP1;ratioP1;P1;durP2;ratioP2;P2;SDS_P1;SDS_P2;PMS_P1;PMS_P2;Temp;Humidity;BMP_temperature;BMP_pressure;BME280_temperature;BME280_humidity;BME280_pressure;Samples;Min_cycle;Max_cycle;Signal;HPM_P1;HPM_P2
2021/08/19 00:00:23;;;;;;;8.90;5.85;;;17.20;99.90;;;;;;5017818;28;20707;-80
2021/08/19 00:02:50;;;;;;;6.40;5.07;;;17.30;99.90;;;;;;5010467;28;20214;-81
2021/08/19 00:05:17;;;;;;;5.30;4.15;;;17.30;99.90;;;;;;5010085;28;20218;-80
2021/08/19 00:07:46;;;;;;;7.88;5.18;;;17.30;99.90;;;;;;5009497;28;20207;-80
2021/08/19 00:10:13;;;;;;;6.60;4.88;;;17.30;99.90;;;;;;5009667;28;20234;-79
2021/08/19 00:12:42;;;;;;;4.68;4.03;;;17.40;99.90;;;;;;5008529;28;20196;-80
2021/08/19 00:15:09;;;;;;;4.15;3.72;;;17.40;99.90;;;;;;5009764;28;20285;-81
2021/08/19 00:17:36;;;;;;;4.57;4.18;;;17.40;99.90;;;;;;5008573;28;20215;-78
2021/08/19 00:20:04;;;;;;;6.72;3.90;;;17.40;99.90;;;;;;5008079;28;20241;-80
2021/08/19 00:22:31;;;;;;;5.53;3.63;;;17.40;99.90;;;;;;5009638;28;20501;-82
2021/08/19 00:24:58;;;;;;;5.57;4.35;;;17.40;99.90;;;;;;5009788;28;20200;-82
2021/08/19 00:27:25;;;;;;;7.43;3.88;;;17.50;99.90;;;;;;5023202;28;20313;-81
2021/08/19 00:29:53;;;;;;;4.97;3.83;;;17.50;99.90;;;;;;5028659;28;20206;-80
2021/08/19 00:32:20;;;;;;;4.88;3.80;;;17.50;99.90;;;;;;5028039;28;20199;-81
2021/08/19 00:34:47;;;;;;;5.70;4.75;;;17.50;99.90;;;;;;5027913;28;20213;-80
2021/08/19 00:37:13;;;;;;;4.70;4.22;;;17.60;99.90;;;;;;5013206;28;20207;-79
2021/08/19 00:39:40;;;;;;;5.20;3.97;;;17.60;99.90;;;;;;5007501;28;20235;-80
2021/08/19 00:42:08;;;;;;;7.82;4.70;;;17.60;99.90;;;;;;5008313;28;20592;-80
2021/08/19 00:44:35;;;;;;;8.85;5.55;;;17.60;99.90;;;;;;5009182;28;20518;-81
2021/08/19 00:47:08;;;;;;;4.97;4.30;;;17.60;99.90;;;;;;5008001;28;20214;-81
2021/08/19 00:49:35;;;;;;;5.38;4.85;;;17.60;99.90;;;;;;5008681;28;20211;-81
2021/08/19 00:52:02;;;;;;;7.50;5.05;;;17.70;99.90;;;;;;5008491;28;20214;-83
2021/08/19 00:54:30;;;;;;;8.50;5.40;;;17.70;99.90;;;;;;5007847;28;20223;-82
2021/08/19 00:56:59;;;;;;;7.13;5.32;;;17.70;99.90;;;;;;5007452;28;20211;-81
2021/08/19 00:59:29;;;;;;;7.30;5.38;;;17.70;99.90;;;;;;5007583;28;20227;-81
2021/08/19 01:01:56;;;;;;;5.25;4.60;;;17.80;99.90;;;;;;5006161;28;20708;-80
2021/08/19 01:04:25;;;;;;;5.60;4.03;;;17.80;99.90;;;;;;5007835;28;20203;-81
2021/08/19 01:06:52;;;;;;;6.30;4.50;;;17.80;99.90;;;;;;5006865;28;20219;-81
2021/08/19 01:09:19;;;;;;;7.50;4.22;;;17.80;99.90;;;;;;5006993;28;20206;-80
2021/08/19 01:11:46;;;;;;;6.65;4.28;;;17.90;99.90;;;;;;5006162;28;20314;-80
2021/08/19 01:14:15;;;;;;;7.75;4.30;;;17.90;99.90;;;;;;5006319;28;20199;-81
2021/08/19 01:16:42;;;;;;;5.75;4.10;;;17.80;99.90;;;;;;5006553;28;20222;-80
2021/08/19 01:19:13;;;;;;;8.15;5.15;;;17.90;99.90;;;;;;5017556;23;20241;-80
2021/08/19 01:21:41;;;;;;;9.25;4.88;;;18.00;99.90;;;;;;5007643;28;20222;-81
2021/08/19 01:24:08;;;;;;;9.98;5.47;;;18.00;99.90;;;;;;5007765;28;20204;-80
2021/08/19 01:26:35;;;;;;;6.35;5.40;;;17.90;99.90;;;;;;5028460;28;20211;-81
2021/08/19 01:29:04;;;;;;;8.77;5.85;;;17.90;99.90;;;;;;5026605;28;20221;-83
2021/08/19 01:31:32;;;;;;;8.77;5.85;;;18.00;99.90;;;;;;5027854;28;20847;-81
2021/08/19 01:33:59;;;;;;;6.97;5.25;;;18.00;99.90;;;;;;5035286;28;20218;-80
2021/08/19 01:36:26;;;;;;;7.65;5.15;;;18.10;99.90;;;;;;5045915;28;20529;-81
2021/08/19 01:38:54;;;;;;;7.18;5.40;;;18.00;99.90;;;;;;5029363;28;20205;-82
2021/08/19 01:41:21;;;;;;;9.90;5.82;;;18.00;99.90;;;;;;5027441;28;20786;-80
2021/08/19 01:43:49;;;;;;;7.93;4.75;;;18.00;99.90;;;;;;5026255;28;20649;-81
2021/08/19 01:46:18;;;;;;;9.02;5.03;;;18.10;99.90;;;;;;5026627;28;20218;-83
2021/08/19 01:48:46;;;;;;;5.57;4.70;;;18.10;99.90;;;;;;5025878;28;20238;-80
2021/08/19 01:51:15;;;;;;;9.15;5.60;;;18.00;99.90;;;;;;5026810;28;20213;-81
2021/08/19 01:53:43;;;;;;;11.10;6.03;;;18.00;99.90;;;;;;5027218;28;20206;-81
2021/08/19 01:56:10;;;;;;;8.48;5.43;;;18.10;99.90;;;;;;5026684;28;20701;-82
2021/08/19 01:58:37;;;;;;;10.10;6.85;;;18.10;99.90;;;;;;5025667;28;20222;-80
2021/08/19 02:01:03;;;;;;;9.60;6.32;;;18.00;99.90;;;;;;5026892;28;20222;-81
2021/08/19 02:03:33;;;;;;;7.85;6.15;;;18.10;99.90;;;;;;5026859;28;20194;-81
2021/08/19 02:05:59;;;;;;;13.45;8.13;;;18.10;99.90;;;;;;5025811;28;20210;-83
2021/08/19 02:08:26;;;;;;;12.13;7.18;;;18.10;99.90;;;;;;5027103;28;20293;-83
2021/08/19 02:10:53;;;;;;;12.02;7.40;;;18.20;99.90;;;;;;5026260;28;20575;-84
2021/08/19 02:13:19;;;;;;;10.05;6.50;;;18.20;99.90;;;;;;5028047;28;20209;-82
2021/08/19 02:15:46;;;;;;;12.55;6.88;;;18.20;99.90;;;;;;5027601;28;20202;-83
2021/08/19 02:18:13;;;;;;;8.68;6.85;;;18.20;99.90;;;;;;5027146;28;20504;-82
2021/08/19 02:20:41;;;;;;;10.82;6.95;;;18.20;99.90;;;;;;5025441;28;20234;-81
2021/08/19 02:23:08;;;;;;;11.13;7.38;;;18.20;99.90;;;;;;5027449;28;20205;-82
2021/08/19 02:25:35;;;;;;;9.18;6.65;;;18.20;99.90;;;;;;5025380;28;20241;-81
2021/08/19 02:28:02;;;;;;;15.60;7.72;;;18.20;99.90;;;;;;5027011;28;20198;-81
2021/08/19 02:30:28;;;;;;;9.43;6.70;;;18.20;99.90;;;;;;5027036;28;20210;-82
2021/08/19 02:32:56;;;;;;;11.73;8.05;;;18.20;99.90;;;;;;5025945;28;20209;-81
2021/08/19 02:35:24;;;;;;;10.40;7.93;;;18.20;99.90;;;;;;5026214;28;20210;-79
2021/08/19 02:37:53;;;;;;;10.00;7.55;;;18.10;99.90;;;;;;5025950;28;20289;-82
2021/08/19 02:40:20;;;;;;;10.00;7.35;;;18.10;99.90;;;;;;5025811;28;20238;-81
2021/08/19 02:42:48;;;;;;;13.20;7.88;;;18.10;99.90;;;;;;5026217;28;20199;-78
2021/08/19 02:45:14;;;;;;;10.27;7.45;;;18.10;99.90;;;;;;5026216;28;20215;-81
2021/08/19 02:47:41;;;;;;;9.63;7.90;;;18.10;99.90;;;;;;5019967;28;20559;-80
2021/08/19 02:50:09;;;;;;;11.23;8.88;;;18.20;99.90;;;;;;5007174;28;20214;-81
2021/08/19 02:52:36;;;;;;;8.45;7.60;;;18.20;99.90;;;;;;5007193;28;20204;-82
2021/08/19 02:55:05;;;;;;;8.98;7.60;;;18.10;99.90;;;;;;5006416;28;20204;-81
2021/08/19 02:57:32;;;;;;;11.32;8.27;;;18.10;99.90;;;;;;5022261;23;20760;-82
2021/08/19 02:59:59;;;;;;;14.52;8.82;;;18.20;99.90;;;;;;5027139;28;20238;-80
2021/08/19 03:02:26;;;;;;;11.50;8.77;;;18.10;99.90;;;;;;5027441;28;20213;-82
2021/08/19 03:04:53;;;;;;;10.35;8.43;;;18.20;99.90;;;;;;5026839;28;20245;-81
2021/08/19 03:07:20;;;;;;;11.55;8.70;;;18.20;99.90;;;;;;5045382;28;20201;-82
2021/08/19 03:09:46;;;;;;;13.30;8.63;;;18.10;99.90;;;;;;5045431;28;20210;-83
2021/08/19 03:12:15;;;;;;;12.18;8.27;;;18.20;99.90;;;;;;5028737;28;20210;-81
2021/08/19 03:14:42;;;;;;;13.02;9.13;;;18.10;99.90;;;;;;5025501;28;20217;-83
2021/08/19 03:17:09;;;;;;;16.33;10.02;;;18.10;99.90;;;;;;5029832;28;20299;-81
2021/08/19 03:19:36;;;;;;;15.20;10.00;;;18.10;99.90;;;;;;5016307;28;20238;-82
2021/08/19 03:22:04;;;;;;;12.23;8.65;;;18.10;99.90;;;;;;5010225;28;20556;-82
2021/08/19 03:24:31;;;;;;;12.35;8.40;;;18.20;99.90;;;;;;5010743;28;20222;-81
2021/08/19 03:26:59;;;;;;;15.88;9.20;;;18.20;99.90;;;;;;5009647;28;20211;-82
2021/08/19 03:29:29;;;;;;;13.48;9.20;;;18.20;99.90;;;;;;4991585;28;20386;-82
2021/08/19 03:31:56;;;;;;;20.02;10.20;;;18.20;99.90;;;;;;5009702;28;20200;-81
2021/08/19 03:34:23;;;;;;;11.82;9.32;;;18.20;99.90;;;;;;5009154;28;20215;-80
2021/08/19 03:36:50;;;;;;;12.82;9.13;;;18.10;99.90;;;;;;5008323;28;20211;-81
2021/08/19 03:39:17;;;;;;;11.43;8.18;;;18.10;99.90;;;;;;5020264;28;20217;-81
2021/08/19 03:41:43;;;;;;;16.88;8.07;;;18.10;99.90;;;;;;5029711;28;20238;-82
2021/08/19 03:44:13;;;;;;;9.60;7.85;;;18.10;99.90;;;;;;5029723;28;20619;-82
2021/08/19 03:46:41;;;;;;;12.25;8.52;;;18.20;99.90;;;;;;5029540;28;20229;-80
2021/08/19 03:49:08;;;;;;;13.63;7.82;;;18.10;99.90;;;;;;5010178;28;20215;-82
2021/08/19 03:51:35;;;;;;;14.32;9.02;;;18.10;99.90;;;;;;5009583;28;20204;-81
2021/08/19 03:54:02;;;;;;;11.68;8.80;;;18.10;99.90;;;;;;5011363;28;20195;-82
2021/08/19 03:56:30;;;;;;;12.32;7.60;;;18.10;99.90;;;;;;5012301;28;20214;-81
2021/08/19 03:58:57;;;;;;;12.05;8.75;;;18.10;99.90;;;;;;5010321;28;20239;-83
2021/08/19 04:01:24;;;;;;;11.93;9.00;;;18.10;99.90;;;;;;5011140;28;20243;-83
2021/08/19 04:03:53;;;;;;;11.43;7.82;;;18.10;99.90;;;;;;5011216;28;20214;-81
2021/08/19 04:06:19;;;;;;;12.35;7.90;;;18.10;99.90;;;;;;5025712;28;20209;-80
2021/08/19 04:08:46;;;;;;;10.13;6.75;;;18.10;99.90;;;;;;5026643;28;20211;-82
2021/08/19 04:11:13;;;;;;;12.77;7.88;;;18.10;99.90;;;;;;5010101;28;20202;-82
2021/08/19 04:13:40;;;;;;;11.32;7.50;;;18.10;99.90;;;;;;5010327;28;20214;-82
2021/08/19 04:16:07;;;;;;;11.27;6.82;;;18.10;99.90;;;;;;5009903;28;20495;-83
2021/08/19 04:18:34;;;;;;;12.63;7.40;;;18.00;99.90;;;;;;5009529;28;20278;-82
2021/08/19 04:21:03;;;;;;;11.57;7.25;;;18.00;99.90;;;;;;5008392;28;20227;-81
2021/08/19 04:23:30;;;;;;;11.45;7.13;;;18.00;99.90;;;;;;5010067;28;20207;-82
2021/08/19 04:25:57;;;;;;;13.82;7.68;;;18.00;99.90;;;;;;5008932;28;20203;-82
2021/08/19 04:28:24;;;;;;;14.48;8.05;;;18.00;99.90;;;;;;5007133;28;20207;-82
2021/08/19 04:30:51;;;;;;;10.00;7.57;;;18.00;99.90;;;;;;5009320;28;20211;-85
2021/08/19 04:33:18;;;;;;;11.43;7.43;;;18.00;99.90;;;;;;5009965;28;20219;-82
2021/08/19 04:35:45;;;;;;;10.43;7.43;;;18.00;99.90;;;;;;5009022;28;20207;-81
2021/08/19 04:38:13;;;;;;;12.82;8.32;;;17.90;99.90;;;;;;5009746;28;20207;-81
2021/08/19 04:40:40;;;;;;;13.65;8.38;;;17.90;99.90;;;;;;5009135;28;20704;-82
2021/08/19 04:43:07;;;;;;;11.63;9.43;;;17.90;99.90;;;;;;5009193;28;20208;-81
2021/08/19 04:45:33;;;;;;;13.80;8.40;;;17.90;99.90;;;;;;5009267;28;20199;-83
2021/08/19 04:48:00;;;;;;;16.98;8.35;;;17.80;99.90;;;;;;5008457;28;20218;-81
2021/08/19 04:50:27;;;;;;;10.98;7.10;;;17.90;99.90;;;;;;5008646;28;20211;-81
2021/08/19 04:52:54;;;;;;;11.85;7.93;;;17.80;99.90;;;;;;5007824;28;20207;-81
2021/08/19 04:55:22;;;;;;;17.63;10.10;;;17.80;99.90;;;;;;5008964;28;20206;-81
2021/08/19 04:57:49;;;;;;;13.77;8.90;;;17.80;99.90;;;;;;5007907;28;20231;-80
2021/08/19 05:00:16;;;;;;;15.80;10.40;;;17.80;99.90;;;;;;5025630;28;20215;-81
2021/08/19 05:02:43;;;;;;;12.57;8.00;;;17.80;99.90;;;;;;5028273;28;20218;-82
2021/08/19 05:05:10;;;;;;;11.38;8.00;;;17.90;99.90;;;;;;5017381;28;20844;-81
2021/08/19 05:07:37;;;;;;;15.90;8.85;;;17.90;99.90;;;;;;5008231;28;20203;-80
2021/08/19 05:10:05;;;;;;;11.27;8.45;;;17.90;99.90;;;;;;5008690;28;20931;-79
2021/08/19 05:12:33;;;;;;;16.45;9.00;;;17.90;99.90;;;;;;5009085;28;20207;-80
2021/08/19 05:15:00;;;;;;;17.13;8.20;;;17.90;99.90;;;;;;5028094;28;20227;-82
2021/08/19 05:17:27;;;;;;;10.32;7.70;;;17.90;99.90;;;;;;5019257;28;20214;-81
2021/08/19 05:19:53;;;;;;;11.68;6.90;;;17.90;99.90;;;;;;5007440;28;20631;-81
2021/08/19 05:22:20;;;;;;;12.73;7.65;;;17.80;99.90;;;;;;5018164;28;20238;-82
2021/08/19 05:24:47;;;;;;;13.38;8.52;;;17.80;99.90;;;;;;5008994;28;20622;-80
2021/08/19 05:27:13;;;;;;;15.95;8.70;;;17.80;99.90;;;;;;5007666;28;20199;-82
2021/08/19 05:29:42;;;;;;;12.43;8.57;;;17.80;99.90;;;;;;5007380;28;20207;-82
2021/08/19 05:32:08;;;;;;;12.73;7.57;;;17.80;99.90;;;;;;5008216;28;20592;-82
2021/08/19 05:34:35;;;;;;;14.77;7.53;;;17.90;99.90;;;;;;5007038;28;20191;-80
2021/08/19 05:37:02;;;;;;;18.08;8.18;;;17.90;99.90;;;;;;5007686;28;20218;-80
2021/08/19 05:39:29;;;;;;;17.58;9.02;;;17.90;99.90;;;;;;5008109;28;20202;-83
2021/08/19 05:41:56;;;;;;;14.10;8.20;;;17.90;99.90;;;;;;5007352;28;20223;-82
2021/08/19 05:44:22;;;;;;;13.60;8.20;;;17.90;99.90;;;;;;5008135;28;20196;-84
2021/08/19 05:46:51;;;;;;;12.25;7.25;;;17.90;99.90;;;;;;5006803;28;20564;-81
2021/08/19 05:49:17;;;;;;;13.88;8.15;;;17.90;99.90;;;;;;5006991;28;20866;-82
2021/08/19 05:51:44;;;;;;;11.93;7.28;;;17.90;99.90;;;;;;5006828;28;20210;-81
2021/08/19 05:54:11;;;;;;;13.13;7.72;;;17.80;99.90;;;;;;5006385;28;20207;-82
2021/08/19 05:56:38;;;;;;;14.55;6.85;;;17.80;99.90;;;;;;5005246;28;20215;-82
2021/08/19 05:59:05;;;;;;;19.25;8.20;;;17.80;99.90;;;;;;5007260;28;20238;-83
2021/08/19 06:01:31;;;;;;;13.23;7.80;;;17.90;99.90;;;;;;5007961;28;20230;-83
2021/08/19 06:04:00;;;;;;;12.23;7.43;;;17.90;99.90;;;;;;5006712;28;20284;-81
2021/08/19 06:06:26;;;;;;;13.32;9.02;;;17.90;99.90;;;;;;5021659;28;20203;-82
2021/08/19 06:08:53;;;;;;;12.30;7.50;;;17.90;99.90;;;;;;5026497;28;20210;-81
2021/08/19 06:11:20;;;;;;;13.23;8.77;;;17.90;99.90;;;;;;5027242;28;20205;-81
2021/08/19 06:13:47;;;;;;;12.10;9.00;;;17.90;99.90;;;;;;5022740;28;20203;-80
2021/08/19 06:16:13;;;;;;;17.30;8.55;;;17.90;99.90;;;;;;5007203;28;20199;-83
2021/08/19 06:18:40;;;;;;;16.83;10.23;;;17.90;99.90;;;;;;5008096;28;20235;-81
2021/08/19 06:21:08;;;;;;;12.63;8.25;;;17.90;99.90;;;;;;5012176;28;20241;-81
2021/08/19 06:23:35;;;;;;;14.50;8.82;;;17.90;99.90;;;;;;5023236;28;20210;-81
2021/08/19 06:26:02;;;;;;;11.30;8.27;;;17.90;99.90;;;;;;5026495;28;20212;-81
2021/08/19 06:28:29;;;;;;;16.67;8.45;;;18.00;99.90;;;;;;5027372;28;20207;-82
2021/08/19 06:30:57;;;;;;;20.17;10.05;;;17.90;99.90;;;;;;5027052;28;20198;-81
2021/08/19 06:33:23;;;;;;;14.77;8.23;;;17.90;99.90;;;;;;5007529;28;20215;-80
2021/08/19 06:35:50;;;;;;;16.73;9.50;;;18.00;99.90;;;;;;5007282;28;20526;-81
2021/08/19 06:38:19;;;;;;;15.77;9.95;;;18.00;99.90;;;;;;5007423;28;20231;-83
2021/08/19 06:40:45;;;;;;;18.10;10.93;;;18.00;99.90;;;;;;5008168;28;20218;-80
2021/08/19 06:43:12;;;;;;;18.40;10.20;;;18.00;99.90;;;;;;5008100;28;20620;-81
2021/08/19 06:45:39;;;;;;;14.23;9.93;;;18.00;99.90;;;;;;5022417;28;20791;-82
2021/08/19 06:48:06;;;;;;;16.63;9.52;;;18.00;99.90;;;;;;5027396;28;20210;-83
2021/08/19 06:50:33;;;;;;;17.25;10.13;;;18.00;99.90;;;;;;5028884;28;20203;-81
2021/08/19 06:53:00;;;;;;;18.02;9.77;;;18.00;99.90;;;;;;5021931;28;20603;-82
2021/08/19 06:55:29;;;;;;;15.60;10.00;;;18.10;99.90;;;;;;5012868;28;20206;-82
2021/08/19 06:57:55;;;;;;;14.27;10.20;;;18.00;99.90;;;;;;5012241;28;20326;-82
2021/08/19 07:00:23;;;;;;;19.70;9.82;;;18.00;99.90;;;;;;5010881;28;20214;-84
2021/08/19 07:02:50;;;;;;;14.82;9.85;;;18.10;99.90;;;;;;5010735;28;20230;-83
2021/08/19 07:05:17;;;;;;;16.73;9.90;;;18.10;99.90;;;;;;5011159;28;20211;-83
2021/08/19 07:07:43;;;;;;;16.45;9.32;;;18.10;99.90;;;;;;5010644;28;20211;-82
2021/08/19 07:10:11;;;;;;;18.50;11.10;;;18.10;99.90;;;;;;5010822;28;20770;-81
2021/08/19 07:12:39;;;;;;;15.52;9.40;;;18.10;99.90;;;;;;5011021;28;20222;-83
2021/08/19 07:15:08;;;;;;;16.20;10.10;;;18.20;99.90;;;;;;5018875;28;20214;-82
2021/08/19 07:17:35;;;;;;;17.00;10.68;;;18.20;99.90;;;;;;5030792;28;20214;-80
2021/08/19 07:20:03;;;;;;;12.88;8.02;;;18.20;99.90;;;;;;5012014;28;20214;-81
2021/08/19 07:22:30;;;;;;;14.52;10.98;;;18.10;99.90;;;;;;5023683;28;20203;-85
2021/08/19 07:24:56;;;;;;;20.05;10.60;;;18.10;99.90;;;;;;5010426;28;20199;-83
2021/08/19 07:27:23;;;;;;;19.33;10.15;;;18.10;99.90;;;;;;5008936;28;20207;-85
2021/08/19 07:29:52;;;;;;;14.38;9.15;;;18.20;99.90;;;;;;5009441;28;20210;-82
2021/08/19 07:32:20;;;;;;;14.38;8.07;;;18.20;99.90;;;;;;5010385;28;20206;-83
2021/08/19 07:34:48;;;;;;;10.57;7.75;;;18.20;99.90;;;;;;5005321;28;20203;-82
2021/08/19 07:37:15;;;;;;;11.15;8.00;;;18.30;99.90;;;;;;5010357;28;20238;-82
2021/08/19 07:39:41;;;;;;;13.35;8.25;;;18.20;99.90;;;;;;5009698;28;20200;-81
2021/08/19 07:42:09;;;;;;;15.52;7.40;;;18.20;99.90;;;;;;5009707;28;20244;-82
2021/08/19 07:44:36;;;;;;;11.40;7.18;;;18.10;99.90;;;;;;5010542;28;20231;-79
2021/08/19 07:47:04;;;;;;;12.85;7.20;;;18.10;99.90;;;;;;5009692;28;20211;-83
2021/08/19 07:49:31;;;;;;;9.05;7.10;;;18.10;99.90;;;;;;5008826;28;20215;-83
2021/08/19 07:51:58;;;;;;;10.60;6.70;;;18.10;99.90;;;;;;5008153;28;20629;-83
2021/08/19 07:54:24;;;;;;;10.95;7.32;;;18.10;99.90;;;;;;5013637;28;20213;-82
2021/08/19 07:56:51;;;;;;;10.27;6.93;;;18.10;99.90;;;;;;5016352;28;20211;-83
2021/08/19 07:59:18;;;;;;;14.15;6.55;;;18.10;99.90;;;;;;5013432;28;20219;-82
2021/08/19 08:01:45;;;;;;;13.52;7.07;;;18.10;99.90;;;;;;5010379;28;20227;-82
2021/08/19 08:04:13;;;;;;;10.18;6.63;;;18.10;99.90;;;;;;5010156;28;20218;-82
2021/08/19 08:06:40;;;;;;;12.25;6.68;;;18.10;99.90;;;;;;5010467;28;20210;-82
2021/08/19 08:09:08;;;;;;;17.48;5.95;;;18.10;99.90;;;;;;5012214;28;20603;-87
2021/08/19 08:11:35;;;;;;;11.88;6.53;;;18.00;99.90;;;;;;5012205;28;20207;-91
2021/08/19 08:14:02;;;;;;;9.57;5.07;;;18.10;99.90;;;;;;5012203;28;20204;-84
2021/08/19 08:16:29;;;;;;;8.75;4.93;;;18.00;99.90;;;;;;5010414;28;20203;-87
2021/08/19 08:18:56;;;;;;;7.80;6.13;;;18.00;99.90;;;;;;5014439;28;20542;-87
2021/08/19 08:21:24;;;;;;;6.88;5.07;;;17.90;99.90;;;;;;5016422;28;20203;-86
2021/08/19 08:23:53;;;;;;;9.32;6.28;;;18.00;99.90;;;;;;5016413;28;20211;-84
2021/08/19 08:26:21;;;;;;;11.50;5.93;;;18.00;99.90;;;;;;5015586;28;20941;-84
2021/08/19 08:28:50;;;;;;;12.02;5.40;;;17.90;99.90;;;;;;5021987;28;20257;-86
2021/08/19 08:31:17;;;;;;;8.35;4.63;;;17.90;99.90;;;;;;5033529;28;20206;-84
2021/08/19 08:33:45;;;;;;;9.57;5.40;;;17.80;99.90;;;;;;5018684;28;20203;-88
2021/08/19 08:36:12;;;;;;;11.25;5.63;;;17.80;99.90;;;;;;5011501;28;20218;-88
2021/08/19 08:38:41;;;;;;;9.82;6.57;;;17.80;99.90;;;;;;5010532;28;20198;-82
2021/08/19 08:41:08;;;;;;;10.48;6.32;;;17.80;99.90;;;;;;5010063;28;20215;-82
2021/08/19 08:43:37;;;;;;;9.02;5.53;;;17.80;99.90;;;;;;5025344;28;20238;-87
2021/08/19 08:46:06;;;;;;;11.15;5.85;;;17.80;99.90;;;;;;5029210;28;20508;-85
2021/08/19 08:48:33;;;;;;;8.82;5.95;;;17.80;99.90;;;;;;5030694;28;20226;-80
2021/08/19 08:51:00;;;;;;;14.48;7.00;;;17.70;99.90;;;;;;5024918;28;20227;-85
2021/08/19 08:53:27;;;;;;;13.48;7.88;;;17.70;99.90;;;;;;5010386;28;20203;-82
2021/08/19 08:55:56;;;;;;;9.18;7.05;;;17.70;99.90;;;;;;5010352;28;20333;-83
2021/08/19 08:58:23;;;;;;;10.07;7.20;;;17.70;99.90;;;;;;5009717;28;20234;-82
2021/08/19 09:00:50;;;;;;;11.10;7.03;;;17.70;99.90;;;;;;5010357;28;20207;-86
2021/08/19 09:03:19;;;;;;;11.43;7.22;;;17.70;99.90;;;;;;5010277;28;20227;-86
2021/08/19 09:05:47;;;;;;;16.23;8.77;;;17.70;99.90;;;;;;5009458;28;20203;-81
2021/08/19 09:08:16;;;;;;;10.30;7.35;;;17.60;99.90;;;;;;5010080;28;20199;-85
2021/08/19 09:10:43;;;;;;;12.13;6.55;;;17.70;99.90;;;;;;5012370;28;20207;-85
2021/08/19 09:13:15;;;;;;;10.48;7.40;;;17.70;99.90;;;;;;5011920;28;20203;-85
2021/08/19 09:15:42;;;;;;;14.02;7.80;;;17.60;99.90;;;;;;5027643;28;20211;-89
2021/08/19 09:18:09;;;;;;;11.45;7.70;;;17.50;99.90;;;;;;5016367;28;20203;-85
2021/08/19 09:20:38;;;;;;;9.52;7.40;;;17.50;99.90;;;;;;5012203;28;20207;-86
2021/08/19 09:23:07;;;;;;;9.20;7.28;;;17.50;99.90;;;;;;5013583;28;20574;-86
2021/08/19 09:25:35;;;;;;;17.85;11.60;;;17.50;99.90;;;;;;5011118;28;20207;-86
2021/08/19 09:28:27;;;;;;;18.55;14.00;;;17.60;99.90;;;;;;5009893;28;20207;-88
2021/08/19 09:30:57;;;;;;;16.33;10.73;;;17.60;99.90;;;;;;5010706;28;20207;-84
2021/08/19 09:33:26;;;;;;;15.48;10.18;;;17.50;99.90;;;;;;5012293;28;20211;-87
2021/08/19 09:35:54;;;;;;;10.85;8.18;;;17.50;99.90;;;;;;5010629;28;20896;-88
2021/08/19 09:38:23;;;;;;;14.70;10.07;;;17.50;99.90;;;;;;5011386;28;20210;-85
2021/08/19 09:41:08;;;;;;;13.23;9.57;;;17.60;99.90;;;;;;5010761;28;20219;-84
2021/08/19 09:43:47;;;;;;;9.32;8.32;;;17.60;99.90;;;;;;5010712;28;20227;-90
2021/08/19 09:46:15;;;;;;;13.93;8.45;;;17.60;99.90;;;;;;5010701;28;20211;-87
2021/08/19 09:48:42;;;;;;;14.10;8.40;;;17.60;99.90;;;;;;5028661;28;20210;-87
2021/08/19 09:51:14;;;;;;;10.43;7.45;;;17.60;99.90;;;;;;5029432;28;20622;-88
2021/08/19 09:53:45;;;;;;;12.02;8.35;;;17.60;99.90;;;;;;5029673;28;20210;-88
2021/08/19 09:56:13;;;;;;;10.90;8.10;;;17.60;99.90;;;;;;5026526;28;20206;-84
2021/08/19 09:58:41;;;;;;;10.18;7.47;;;17.60;99.90;;;;;;5008859;28;20668;-86
2021/08/19 10:01:09;;;;;;;15.70;9.32;;;17.60;99.90;;;;;;5021754;28;20209;-87
2021/08/19 10:03:37;;;;;;;13.25;9.10;;;17.70;99.90;;;;;;5029305;28;20229;-81
2021/08/19 10:06:05;;;;;;;12.25;8.02;;;17.70;99.90;;;;;;5027767;28;20206;-80
2021/08/19 10:08:32;;;;;;;12.45;8.95;;;17.70;99.90;;;;;;5018321;28;20247;-81
2021/08/19 10:11:01;;;;;;;16.50;8.57;;;17.70;99.90;;;;;;5014178;28;20237;-83
2021/08/19 10:13:29;;;;;;;12.90;8.13;;;17.70;99.90;;;;;;5030590;28;20206;-87
2021/08/19 10:15:57;;;;;;;11.40;8.93;;;17.70;99.90;;;;;;5029963;28;20917;-84
2021/08/19 10:18:29;;;;;;;11.55;8.63;;;17.70;99.90;;;;;;5029760;28;20238;-86
2021/08/19 10:21:08;;;;;;;10.80;8.48;;;17.70;99.90;;;;;;5029698;28;20250;-87
2021/08/19 10:23:38;;;;;;;12.70;8.27;;;17.70;99.90;;;;;;5030221;28;20210;-87
2021/08/19 10:26:09;;;;;;;16.23;9.07;;;17.60;99.90;;;;;;5026899;28;20210;-84
2021/08/19 10:28:51;;;;;;;12.45;9.10;;;17.70;99.90;;;;;;5015432;28;20191;-87
2021/08/19 10:31:44;;;;;;;13.60;9.02;;;17.70;99.90;;;;;;5015145;28;20207;-87
2021/08/19 10:34:13;;;;;;;12.88;8.30;;;17.70;99.90;;;;;;5014892;28;20207;-88
2021/08/19 10:36:51;;;;;;;13.10;9.70;;;17.70;99.90;;;;;;5013389;28;20206;-88
2021/08/19 10:39:31;;;;;;;11.90;8.15;;;17.70;99.90;;;;;;5016143;28;20592;-88
2021/08/19 10:41:59;;;;;;;12.43;7.65;;;17.70;99.90;;;;;;5034952;28;20213;-86
2021/08/19 10:44:31;;;;;;;14.27;8.93;;;17.80;99.90;;;;;;5034807;28;20792;-85
2021/08/19 10:46:58;;;;;;;14.93;9.57;;;17.80;99.90;;;;;;5014199;28;20258;-88
2021/08/19 10:49:40;;;;;;;12.63;8.30;;;17.90;99.90;;;;;;5026385;28;20208;-85
2021/08/19 10:52:29;;;;;;;17.58;9.60;;;17.90;99.90;;;;;;5034175;28;20198;-86
2021/08/19 10:55:15;;;;;;;11.65;7.93;;;17.90;99.90;;;;;;5026631;28;20286;-86
2021/08/19 10:57:49;;;;;;;16.50;8.80;;;17.90;99.90;;;;;;5013898;28;20242;-86
2021/08/19 11:00:17;;;;;;;17.20;9.35;;;18.00;99.90;;;;;;5013552;28;20638;-86
2021/08/19 11:02:45;;;;;;;13.88;9.00;;;18.00;99.90;;;;;;5012780;28;20223;-87
2021/08/19 11:05:15;;;;;;;14.32;8.90;;;18.10;99.90;;;;;;5013764;28;20199;-86
2021/08/19 11:07:47;;;;;;;14.80;8.90;;;18.00;99.90;;;;;;5012125;28;20214;-83
2021/08/19 11:10:20;;;;;;;14.85;11.13;;;18.00;99.90;;;;;;5028921;28;20586;-85
2021/08/19 11:12:47;;;;;;;17.85;11.57;;;18.00;99.90;;;;;;5031448;28;20214;-86
2021/08/19 11:15:14;;;;;;;12.48;10.32;;;18.00;99.90;;;;;;5033246;28;20199;-80
2021/08/19 11:17:51;;;;;;;12.68;9.27;;;18.10;99.90;;;;;;5013039;28;20211;-80
2021/08/19 11:20:36;;;;;;;14.10;10.15;;;18.10;99.90;;;;;;5012436;28;20215;-83
2021/08/19 11:23:05;;;;;;;13.98;10.35;;;18.10;99.90;;;;;;5011909;28;20215;-80
2021/08/19 11:25:32;;;;;;;15.30;10.35;;;18.10;99.90;;;;;;5026066;28;20591;-84
2021/08/19 11:28:11;;;;;;;13.90;9.88;;;18.10;99.90;;;;;;5032746;28;20221;-82
2021/08/19 11:30:39;;;;;;;13.73;9.93;;;18.10;99.90;;;;;;5018846;28;20207;-83
2021/08/19 11:33:10;;;;;;;12.90;9.38;;;18.10;99.90;;;;;;5011203;28;20867;-83
2021/08/19 11:35:39;;;;;;;14.30;9.45;;;18.10;99.90;;;;;;5010608;28;20196;-85
2021/08/19 11:38:11;;;;;;;15.52;10.73;;;18.10;99.90;;;;;;5010368;28;20517;-84
2021/08/19 11:40:38;;;;;;;12.55;9.10;;;18.10;99.90;;;;;;5011087;28;20940;-85
2021/08/19 11:43:26;;;;;;;13.57;9.65;;;18.10;99.90;;;;;;5010335;28;20590;-84
2021/08/19 11:46:03;;;;;;;14.80;9.18;;;18.10;99.90;;;;;;5015196;28;20221;-84
2021/08/19 11:48:30;;;;;;;10.68;9.15;;;18.20;99.90;;;;;;5026407;28;20211;-84
2021/08/19 11:51:00;;;;;;;12.27;8.63;;;18.20;99.90;;;;;;5010135;28;20219;-83
2021/08/19 11:53:27;;;;;;;10.82;8.02;;;18.20;99.90;;;;;;5010042;28;20219;-85
2021/08/19 11:55:55;;;;;;;13.73;9.05;;;18.30;99.90;;;;;;5010980;28;20214;-82
2021/08/19 11:58:24;;;;;;;16.98;9.50;;;18.30;99.90;;;;;;5012351;28;20243;-80
2021/08/19 12:00:59;;;;;;;10.98;8.65;;;18.40;99.90;;;;;;5023945;28;20206;-84
2021/08/19 12:03:27;;;;;;;10.77;8.00;;;18.40;99.90;;;;;;5032750;28;20225;-80
2021/08/19 12:06:06;;;;;;;10.57;7.45;;;18.50;99.90;;;;;;5029291;28;20207;-83
2021/08/19 12:08:34;;;;;;;13.88;9.20;;;18.60;99.90;;;;;;5029846;28;20219;-81
2021/08/19 12:11:05;;;;;;;13.35;9.23;;;18.60;99.90;;;;;;5027446;28;20210;-83
2021/08/19 12:13:34;;;;;;;13.07;8.27;;;18.60;99.90;;;;;;5026390;28;20552;-82
2021/08/19 12:16:01;;;;;;;15.50;9.02;;;18.70;99.90;;;;;;5028463;28;20202;-79
2021/08/19 12:18:28;;;;;;;12.60;7.85;;;18.60;99.90;;;;;;5029648;28;20238;-83
2021/08/19 12:21:15;;;;;;;12.48;8.50;;;18.60;99.90;;;;;;5027881;28;20206;-81
2021/08/19 12:23:44;;;;;;;12.32;7.97;;;18.50;99.90;;;;;;5025798;28;20218;-85
2021/08/19 12:26:14;;;;;;;12.35;8.32;;;18.50;99.90;;;;;;5020740;28;20207;-82
2021/08/19 12:28:41;;;;;;;15.48;8.50;;;18.50;99.90;;;;;;5028572;28;20210;-83
2021/08/19 12:31:08;;;;;;;10.25;9.02;;;18.40;99.90;;;;;;5029607;28;20210;-81
2021/08/19 12:33:38;;;;;;;8.75;7.70;;;18.40;99.90;;;;;;5026375;28;20646;-82
2021/08/19 12:36:10;;;;;;;9.82;8.52;;;18.40;99.90;;;;;;5026713;28;20260;-86
2021/08/19 12:38:47;;;;;;;13.73;8.57;;;18.50;99.90;;;;;;5028484;28;20206;-82
2021/08/19 12:41:19;;;;;;;9.95;8.65;;;18.50;99.90;;;;;;5029973;28;20221;-83
2021/08/19 12:43:47;;;;;;;11.40;9.05;;;18.50;99.90;;;;;;5029197;28;20301;-82